sensor_id;sensor_type;location;lat;lon;timestamp;temperature;humidity
4376;DHT22;2202;50.866;12.750;2022-07-04T00:01:22;17.60;76.60
4376;DHT22;2202;50.866;12.750;2022-07-04T00:03:49;17.50;77.00
4376;DHT22;2202;50.866;12.750;2022-07-04T00:06:16;17.40;77.40
4376;DHT22;2202;50.866;12.750;2022-07-04T00:08:43;17.40;77.80
4376;DHT22;2202;50.866;12.750;2022-07-04T00:11:10;17.30;77.80
4376;DHT22;2202;50.866;12.750;2022-07-04T00:13:36;17.30;78.20
4376;DHT22;2202;50.866;12.750;2022-07-04T00:16:05;17.20;78.00
4376;DHT22;2202;50.866;12.750;2022-07-04T00:18:32;17.10;76.40
4376;DHT22;2202;50.866;12.750;2022-07-04T00:20:59;17.10;77.00
4376;DHT22;2202;50.866;12.750;2022-07-04T00:23:25;17.10;76.20
4376;DHT22;2202;50.866;12.750;2022-07-04T00:25:52;17.20;75.20
4376;DHT22;2202;50.866;12.750;2022-07-04T00:28:19;17.30;73.80
4376;DHT22;2202;50.866;12.750;2022-07-04T00:30:46;17.50;73.00
4376;DHT22;2202;50.866;12.750;2022-07-04T00:33:14;17.60;72.20
4376;DHT22;2202;50.866;12.750;2022-07-04T00:35:41;17.70;71.80
4376;DHT22;2202;50.866;12.750;2022-07-04T00:38:08;17.80;71.00
4376;DHT22;2202;50.866;12.750;2022-07-04T00:40:35;17.80;70.60
4376;DHT22;2202;50.866;12.750;2022-07-04T00:43:04;17.90;70.20
4376;DHT22;2202;50.866;12.750;2022-07-04T00:45:31;17.90;70.20
4376;DHT22;2202;50.866;12.750;2022-07-04T00:47:58;17.90;69.80
4376;DHT22;2202;50.866;12.750;2022-07-04T00:50:26;17.90;70.00
4376;DHT22;2202;50.866;12.750;2022-07-04T00:52:53;17.90;70.40
4376;DHT22;2202;50.866;12.750;2022-07-04T00:55:22;17.90;71.00
4376;DHT22;2202;50.866;12.750;2022-07-04T00:57:49;17.80;71.00
4376;DHT22;2202;50.866;12.750;2022-07-04T01:00:17;17.80;71.60
4376;DHT22;2202;50.866;12.750;2022-07-04T01:02:45;17.80;72.40
4376;DHT22;2202;50.866;12.750;2022-07-04T01:05:12;17.70;72.80
4376;DHT22;2202;50.866;12.750;2022-07-04T01:07:41;17.60;73.60
4376;DHT22;2202;50.866;12.750;2022-07-04T01:10:09;17.50;74.40
4376;DHT22;2202;50.866;12.750;2022-07-04T01:12:36;17.40;74.40
4376;DHT22;2202;50.866;12.750;2022-07-04T01:15:04;17.40;74.80
4376;DHT22;2202;50.866;12.750;2022-07-04T01:17:31;17.30;75.00
4376;DHT22;2202;50.866;12.750;2022-07-04T01:19:58;17.20;75.40
4376;DHT22;2202;50.866;12.750;2022-07-04T01:22:26;17.10;75.60
4376;DHT22;2202;50.866;12.750;2022-07-04T01:24:53;17.10;76.20
4376;DHT22;2202;50.866;12.750;2022-07-04T01:27:20;16.90;77.00
4376;DHT22;2202;50.866;12.750;2022-07-04T01:29:47;16.80;77.20
4376;DHT22;2202;50.866;12.750;2022-07-04T01:32:14;16.80;77.60
4376;DHT22;2202;50.866;12.750;2022-07-04T01:34:41;16.80;78.00
4376;DHT22;2202;50.866;12.750;2022-07-04T01:37:08;16.80;78.40
4376;DHT22;2202;50.866;12.750;2022-07-04T01:39:36;16.70;78.60
4376;DHT22;2202;50.866;12.750;2022-07-04T01:42:04;16.60;78.40
4376;DHT22;2202;50.866;12.750;2022-07-04T01:44:31;16.60;78.80
4376;DHT22;2202;50.866;12.750;2022-07-04T01:46:58;16.50;79.40
4376;DHT22;2202;50.866;12.750;2022-07-04T01:49:25;16.40;80.00
4376;DHT22;2202;50.866;12.750;2022-07-04T01:51:52;16.30;80.40
4376;DHT22;2202;50.866;12.750;2022-07-04T01:54:19;16.30;80.80
4376;DHT22;2202;50.866;12.750;2022-07-04T01:56:48;16.30;81.00
4376;DHT22;2202;50.866;12.750;2022-07-04T01:59:15;16.20;81.00
4376;DHT22;2202;50.866;12.750;2022-07-04T02:01:41;16.20;81.40
4376;DHT22;2202;50.866;12.750;2022-07-04T02:04:07;16.10;81.60
4376;DHT22;2202;50.866;12.750;2022-07-04T02:06:34;16.10;81.80
4376;DHT22;2202;50.866;12.750;2022-07-04T02:09:02;16.10;82.20
4376;DHT22;2202;50.866;12.750;2022-07-04T02:11:42;16.00;82.20
4376;DHT22;2202;50.866;12.750;2022-07-04T02:14:28;16.00;82.20
4376;DHT22;2202;50.866;12.750;2022-07-04T02:16:55;15.90;83.20
4376;DHT22;2202;50.866;12.750;2022-07-04T02:19:22;15.80;83.60
4376;DHT22;2202;50.866;12.750;2022-07-04T02:21:49;15.80;83.80
4376;DHT22;2202;50.866;12.750;2022-07-04T02:24:17;15.80;84.00
4376;DHT22;2202;50.866;12.750;2022-07-04T02:26:44;15.80;84.80
4376;DHT22;2202;50.866;12.750;2022-07-04T02:29:11;15.80;84.80
4376;DHT22;2202;50.866;12.750;2022-07-04T02:31:39;15.70;85.20
4376;DHT22;2202;50.866;12.750;2022-07-04T02:34:06;15.70;85.20
4376;DHT22;2202;50.866;12.750;2022-07-04T02:36:33;15.70;85.80
4376;DHT22;2202;50.866;12.750;2022-07-04T02:39:00;15.60;86.00
4376;DHT22;2202;50.866;12.750;2022-07-04T02:41:27;15.60;86.20
4376;DHT22;2202;50.866;12.750;2022-07-04T02:43:54;15.60;86.20
4376;DHT22;2202;50.866;12.750;2022-07-04T02:46:21;15.60;86.40
4376;DHT22;2202;50.866;12.750;2022-07-04T02:48:49;15.50;86.80
4376;DHT22;2202;50.866;12.750;2022-07-04T02:51:16;15.50;87.00
4376;DHT22;2202;50.866;12.750;2022-07-04T02:53:43;15.50;89.20
4376;DHT22;2202;50.866;12.750;2022-07-04T02:56:10;15.50;89.20
4376;DHT22;2202;50.866;12.750;2022-07-04T02:58:37;15.50;88.80
4376;DHT22;2202;50.866;12.750;2022-07-04T03:01:04;15.50;88.60
4376;DHT22;2202;50.866;12.750;2022-07-04T03:03:31;15.40;88.40
4376;DHT22;2202;50.866;12.750;2022-07-04T03:05:59;15.40;88.20
4376;DHT22;2202;50.866;12.750;2022-07-04T03:08:26;15.40;88.60
4376;DHT22;2202;50.866;12.750;2022-07-04T03:10:53;15.40;88.40
4376;DHT22;2202;50.866;12.750;2022-07-04T03:13:20;15.40;88.40
4376;DHT22;2202;50.866;12.750;2022-07-04T03:15:47;15.30;88.40
4376;DHT22;2202;50.866;12.750;2022-07-04T03:18:14;15.30;88.40
4376;DHT22;2202;50.866;12.750;2022-07-04T03:20:41;15.30;88.60
4376;DHT22;2202;50.866;12.750;2022-07-04T03:23:09;15.20;88.20
4376;DHT22;2202;50.866;12.750;2022-07-04T03:25:36;15.20;88.20
4376;DHT22;2202;50.866;12.750;2022-07-04T03:28:03;15.20;88.40
4376;DHT22;2202;50.866;12.750;2022-07-04T03:30:30;15.20;88.40
4376;DHT22;2202;50.866;12.750;2022-07-04T03:32:57;15.10;88.80
4376;DHT22;2202;50.866;12.750;2022-07-04T03:35:24;15.10;89.20
4376;DHT22;2202;50.866;12.750;2022-07-04T03:37:52;15.10;89.00
4376;DHT22;2202;50.866;12.750;2022-07-04T03:40:21;15.10;89.00
4376;DHT22;2202;50.866;12.750;2022-07-04T03:42:48;15.10;89.00
4376;DHT22;2202;50.866;12.750;2022-07-04T03:45:15;15.10;89.00
4376;DHT22;2202;50.866;12.750;2022-07-04T03:47:42;15.00;90.00
4376;DHT22;2202;50.866;12.750;2022-07-04T03:50:09;15.00;90.20
4376;DHT22;2202;50.866;12.750;2022-07-04T03:52:36;15.00;90.40
4376;DHT22;2202;50.866;12.750;2022-07-04T03:55:03;15.00;90.60
4376;DHT22;2202;50.866;12.750;2022-07-04T03:57:31;15.00;91.10
4376;DHT22;2202;50.866;12.750;2022-07-04T03:59:58;15.00;91.00
4376;DHT22;2202;50.866;12.750;2022-07-04T04:02:25;15.00;91.80
4376;DHT22;2202;50.866;12.750;2022-07-04T04:04:52;15.10;92.40
4376;DHT22;2202;50.866;12.750;2022-07-04T04:07:36;15.20;92.40
4376;DHT22;2202;50.866;12.750;2022-07-04T04:10:04;15.10;92.70
4376;DHT22;2202;50.866;12.750;2022-07-04T04:12:32;15.20;92.50
4376;DHT22;2202;50.866;12.750;2022-07-04T04:14:59;15.20;92.40
4376;DHT22;2202;50.866;12.750;2022-07-04T04:17:26;15.30;92.60
4376;DHT22;2202;50.866;12.750;2022-07-04T04:19:53;15.30;92.50
4376;DHT22;2202;50.866;12.750;2022-07-04T04:22:20;15.30;92.30
4376;DHT22;2202;50.866;12.750;2022-07-04T04:24:47;15.40;92.30
4376;DHT22;2202;50.866;12.750;2022-07-04T04:27:13;15.40;92.50
4376;DHT22;2202;50.866;12.750;2022-07-04T04:29:42;15.50;92.80
4376;DHT22;2202;50.866;12.750;2022-07-04T04:32:08;15.40;93.10
4376;DHT22;2202;50.866;12.750;2022-07-04T04:34:35;15.50;92.90
4376;DHT22;2202;50.866;12.750;2022-07-04T04:37:03;15.60;92.90
4376;DHT22;2202;50.866;12.750;2022-07-04T04:39:30;15.60;92.90
4376;DHT22;2202;50.866;12.750;2022-07-04T04:41:56;15.60;92.90
4376;DHT22;2202;50.866;12.750;2022-07-04T04:44:23;15.70;92.90
4376;DHT22;2202;50.866;12.750;2022-07-04T04:46:52;15.70;92.90
4376;DHT22;2202;50.866;12.750;2022-07-04T04:49:19;15.80;92.90
4376;DHT22;2202;50.866;12.750;2022-07-04T04:51:46;15.80;92.70
4376;DHT22;2202;50.866;12.750;2022-07-04T04:54:13;15.80;92.70
4376;DHT22;2202;50.866;12.750;2022-07-04T04:56:40;15.80;92.80
4376;DHT22;2202;50.866;12.750;2022-07-04T04:59:06;15.70;92.90
4376;DHT22;2202;50.866;12.750;2022-07-04T05:01:35;15.80;92.90
4376;DHT22;2202;50.866;12.750;2022-07-04T05:04:04;15.80;92.80
4376;DHT22;2202;50.866;12.750;2022-07-04T05:06:30;15.90;92.60
4376;DHT22;2202;50.866;12.750;2022-07-04T05:08:57;16.00;92.50
4376;DHT22;2202;50.866;12.750;2022-07-04T05:11:24;16.00;92.30
4376;DHT22;2202;50.866;12.750;2022-07-04T05:13:52;16.10;92.10
4376;DHT22;2202;50.866;12.750;2022-07-04T05:16:18;16.10;91.90
4376;DHT22;2202;50.866;12.750;2022-07-04T05:18:45;16.20;91.90
4376;DHT22;2202;50.866;12.750;2022-07-04T05:21:14;16.30;91.40
4376;DHT22;2202;50.866;12.750;2022-07-04T05:23:40;16.30;91.20
4376;DHT22;2202;50.866;12.750;2022-07-04T05:26:07;16.30;91.10
4376;DHT22;2202;50.866;12.750;2022-07-04T05:28:34;16.40;90.10
4376;DHT22;2202;50.866;12.750;2022-07-04T05:31:01;16.40;90.30
4376;DHT22;2202;50.866;12.750;2022-07-04T05:33:28;16.40;90.40
4376;DHT22;2202;50.866;12.750;2022-07-04T05:35:55;16.50;90.20
4376;DHT22;2202;50.866;12.750;2022-07-04T05:38:23;16.50;88.80
4376;DHT22;2202;50.866;12.750;2022-07-04T05:40:50;16.60;89.40
4376;DHT22;2202;50.866;12.750;2022-07-04T05:43:16;16.60;89.60
4376;DHT22;2202;50.866;12.750;2022-07-04T05:45:43;16.60;88.20
4376;DHT22;2202;50.866;12.750;2022-07-04T05:48:10;16.70;88.60
4376;DHT22;2202;50.866;12.750;2022-07-04T05:50:37;16.70;88.00
4376;DHT22;2202;50.866;12.750;2022-07-04T05:53:04;16.70;88.20
4376;DHT22;2202;50.866;12.750;2022-07-04T05:55:32;16.70;88.00
4376;DHT22;2202;50.866;12.750;2022-07-04T05:58:00;16.80;88.20
4376;DHT22;2202;50.866;12.750;2022-07-04T06:00:27;16.80;87.20
4376;DHT22;2202;50.866;12.750;2022-07-04T06:02:54;16.80;85.60
4376;DHT22;2202;50.866;12.750;2022-07-04T06:05:21;16.90;85.40
4376;DHT22;2202;50.866;12.750;2022-07-04T06:07:48;16.90;86.40
4376;DHT22;2202;50.866;12.750;2022-07-04T06:10:15;16.90;86.80
4376;DHT22;2202;50.866;12.750;2022-07-04T06:12:44;17.10;85.40
4376;DHT22;2202;50.866;12.750;2022-07-04T06:15:11;17.20;85.00
4376;DHT22;2202;50.866;12.750;2022-07-04T06:17:38;17.20;84.60
4376;DHT22;2202;50.866;12.750;2022-07-04T06:20:06;17.30;84.60
4376;DHT22;2202;50.866;12.750;2022-07-04T06:22:39;17.40;84.00
4376;DHT22;2202;50.866;12.750;2022-07-04T06:25:10;17.50;82.20
4376;DHT22;2202;50.866;12.750;2022-07-04T06:27:37;17.60;81.80
4376;DHT22;2202;50.866;12.750;2022-07-04T06:30:06;17.70;82.80
4376;DHT22;2202;50.866;12.750;2022-07-04T06:32:42;17.70;81.80
4376;DHT22;2202;50.866;12.750;2022-07-04T06:35:09;17.90;82.20
4376;DHT22;2202;50.866;12.750;2022-07-04T06:37:53;18.10;78.00
4376;DHT22;2202;50.866;12.750;2022-07-04T06:40:20;18.10;77.80
4376;DHT22;2202;50.866;12.750;2022-07-04T06:42:47;18.10;78.80
4376;DHT22;2202;50.866;12.750;2022-07-04T06:45:15;18.30;77.00
4376;DHT22;2202;50.866;12.750;2022-07-04T06:47:43;18.40;77.80
4376;DHT22;2202;50.866;12.750;2022-07-04T06:50:09;18.70;75.20
4376;DHT22;2202;50.866;12.750;2022-07-04T06:52:37;18.80;74.80
4376;DHT22;2202;50.866;12.750;2022-07-04T06:55:04;19.00;73.40
4376;DHT22;2202;50.866;12.750;2022-07-04T06:57:31;19.50;74.20
4376;DHT22;2202;50.866;12.750;2022-07-04T06:59:58;19.90;68.40
4376;DHT22;2202;50.866;12.750;2022-07-04T07:02:26;20.00;70.00
4376;DHT22;2202;50.866;12.750;2022-07-04T07:04:54;20.20;67.00
4376;DHT22;2202;50.866;12.750;2022-07-04T07:07:22;20.70;65.80
4376;DHT22;2202;50.866;12.750;2022-07-04T07:09:50;21.10;64.80
4376;DHT22;2202;50.866;12.750;2022-07-04T07:12:17;21.40;61.80
4376;DHT22;2202;50.866;12.750;2022-07-04T07:14:43;21.60;61.60
4376;DHT22;2202;50.866;12.750;2022-07-04T07:17:10;21.50;60.80
4376;DHT22;2202;50.866;12.750;2022-07-04T07:19:39;21.40;61.20
4376;DHT22;2202;50.866;12.750;2022-07-04T07:22:05;20.70;64.40
4376;DHT22;2202;50.866;12.750;2022-07-04T07:24:32;20.50;66.60
4376;DHT22;2202;50.866;12.750;2022-07-04T07:26:59;21.00;66.20
4376;DHT22;2202;50.866;12.750;2022-07-04T07:29:26;21.10;65.60
4376;DHT22;2202;50.866;12.750;2022-07-04T07:31:53;21.90;62.40
4376;DHT22;2202;50.866;12.750;2022-07-04T07:34:20;22.30;58.20
4376;DHT22;2202;50.866;12.750;2022-07-04T07:36:48;22.40;55.90
4376;DHT22;2202;50.866;12.750;2022-07-04T07:39:15;22.30;56.70
4376;DHT22;2202;50.866;12.750;2022-07-04T07:41:42;22.30;56.90
4376;DHT22;2202;50.866;12.750;2022-07-04T07:44:09;22.30;55.70
4376;DHT22;2202;50.866;12.750;2022-07-04T07:46:36;22.00;58.20
4376;DHT22;2202;50.866;12.750;2022-07-04T07:49:03;22.20;60.60
4376;DHT22;2202;50.866;12.750;2022-07-04T07:51:30;22.70;55.70
4376;DHT22;2202;50.866;12.750;2022-07-04T07:53:58;22.70;54.40
4376;DHT22;2202;50.866;12.750;2022-07-04T07:56:25;22.80;53.70
4376;DHT22;2202;50.866;12.750;2022-07-04T07:58:52;23.20;57.60
4376;DHT22;2202;50.866;12.750;2022-07-04T08:01:19;23.70;52.30
4376;DHT22;2202;50.866;12.750;2022-07-04T08:03:47;23.80;51.90
4376;DHT22;2202;50.866;12.750;2022-07-04T08:06:31;23.90;46.60
4376;DHT22;2202;50.866;12.750;2022-07-04T08:08:59;23.30;48.90
4376;DHT22;2202;50.866;12.750;2022-07-04T08:11:27;22.60;50.50
4376;DHT22;2202;50.866;12.750;2022-07-04T08:13:54;22.80;51.90
4376;DHT22;2202;50.866;12.750;2022-07-04T08:16:21;22.90;52.30
4376;DHT22;2202;50.866;12.750;2022-07-04T08:18:48;23.00;54.30
4376;DHT22;2202;50.866;12.750;2022-07-04T08:21:15;23.30;51.40
4376;DHT22;2202;50.866;12.750;2022-07-04T08:23:42;23.00;53.20
4376;DHT22;2202;50.866;12.750;2022-07-04T08:26:10;23.20;56.00
4376;DHT22;2202;50.866;12.750;2022-07-04T08:28:37;23.40;54.30
4376;DHT22;2202;50.866;12.750;2022-07-04T08:31:04;23.50;48.90
4376;DHT22;2202;50.866;12.750;2022-07-04T08:33:31;23.70;50.90
4376;DHT22;2202;50.866;12.750;2022-07-04T08:35:57;23.70;50.50
4376;DHT22;2202;50.866;12.750;2022-07-04T08:38:24;23.50;52.30
4376;DHT22;2202;50.866;12.750;2022-07-04T08:40:57;23.50;50.50
4376;DHT22;2202;50.866;12.750;2022-07-04T08:43:26;23.20;48.80
4376;DHT22;2202;50.866;12.750;2022-07-04T08:45:55;23.40;50.90
4376;DHT22;2202;50.866;12.750;2022-07-04T08:48:24;23.50;48.90
4376;DHT22;2202;50.866;12.750;2022-07-04T08:50:55;23.50;50.30
4376;DHT22;2202;50.866;12.750;2022-07-04T08:53:26;23.60;50.50
4376;DHT22;2202;50.866;12.750;2022-07-04T08:55:55;23.80;49.10
4376;DHT22;2202;50.866;12.750;2022-07-04T08:58:42;24.00;52.80
4376;DHT22;2202;50.866;12.750;2022-07-04T09:01:11;24.40;46.10
4376;DHT22;2202;50.866;12.750;2022-07-04T09:03:41;24.70;45.20
4376;DHT22;2202;50.866;12.750;2022-07-04T09:06:08;25.00;47.50
4376;DHT22;2202;50.866;12.750;2022-07-04T09:08:35;25.10;44.50
4376;DHT22;2202;50.866;12.750;2022-07-04T09:11:02;25.10;41.10
4376;DHT22;2202;50.866;12.750;2022-07-04T09:13:30;24.90;43.80
4376;DHT22;2202;50.866;12.750;2022-07-04T09:16:00;25.00;51.60
4376;DHT22;2202;50.866;12.750;2022-07-04T09:18:28;25.10;46.40
4376;DHT22;2202;50.866;12.750;2022-07-04T09:20:58;25.10;41.50
4376;DHT22;2202;50.866;12.750;2022-07-04T09:23:26;25.50;42.90
4376;DHT22;2202;50.866;12.750;2022-07-04T09:26:07;25.40;49.30
4376;DHT22;2202;50.866;12.750;2022-07-04T09:28:34;25.40;46.40
4376;DHT22;2202;50.866;12.750;2022-07-04T09:31:13;25.70;45.40
4376;DHT22;2202;50.866;12.750;2022-07-04T09:33:44;25.60;47.70
4376;DHT22;2202;50.866;12.750;2022-07-04T09:36:12;25.70;42.00
4376;DHT22;2202;50.866;12.750;2022-07-04T09:38:39;25.90;43.20
4376;DHT22;2202;50.866;12.750;2022-07-04T09:41:06;26.00;43.60
4376;DHT22;2202;50.866;12.750;2022-07-04T09:43:59;26.20;42.40
4376;DHT22;2202;50.866;12.750;2022-07-04T09:46:28;26.50;41.70
4376;DHT22;2202;50.866;12.750;2022-07-04T09:48:55;26.40;39.50
4376;DHT22;2202;50.866;12.750;2022-07-04T09:51:36;26.00;44.30
4376;DHT22;2202;50.866;12.750;2022-07-04T09:54:14;26.20;46.10
4376;DHT22;2202;50.866;12.750;2022-07-04T09:56:41;26.60;40.90
4376;DHT22;2202;50.866;12.750;2022-07-04T09:59:08;26.80;39.50
4376;DHT22;2202;50.866;12.750;2022-07-04T10:01:37;26.70;40.90
4376;DHT22;2202;50.866;12.750;2022-07-04T10:04:04;26.70;38.30
4376;DHT22;2202;50.866;12.750;2022-07-04T10:06:32;26.50;38.10
4376;DHT22;2202;50.866;12.750;2022-07-04T10:09:07;26.20;39.50
4376;DHT22;2202;50.866;12.750;2022-07-04T10:11:36;25.90;44.50
4376;DHT22;2202;50.866;12.750;2022-07-04T10:14:05;25.80;45.20
4376;DHT22;2202;50.866;12.750;2022-07-04T10:16:32;25.30;44.50
4376;DHT22;2202;50.866;12.750;2022-07-04T10:19:01;24.80;44.00
4376;DHT22;2202;50.866;12.750;2022-07-04T10:21:30;24.50;49.60
4376;DHT22;2202;50.866;12.750;2022-07-04T10:23:57;25.00;49.60
4376;DHT22;2202;50.866;12.750;2022-07-04T10:26:24;25.00;46.60
4376;DHT22;2202;50.866;12.750;2022-07-04T10:28:51;25.10;46.60
4376;DHT22;2202;50.866;12.750;2022-07-04T10:31:19;24.80;50.50
4376;DHT22;2202;50.866;12.750;2022-07-04T10:33:47;25.10;47.70
4376;DHT22;2202;50.866;12.750;2022-07-04T10:36:17;24.90;44.50
4376;DHT22;2202;50.866;12.750;2022-07-04T10:38:49;25.00;49.60
4376;DHT22;2202;50.866;12.750;2022-07-04T10:41:17;25.20;45.60
4376;DHT22;2202;50.866;12.750;2022-07-04T10:43:57;25.70;42.20
4376;DHT22;2202;50.866;12.750;2022-07-04T10:46:28;26.20;43.10
4376;DHT22;2202;50.866;12.750;2022-07-04T10:48:58;26.30;45.40
4376;DHT22;2202;50.866;12.750;2022-07-04T10:51:50;26.20;44.10
4376;DHT22;2202;50.866;12.750;2022-07-04T10:54:20;25.90;41.80
4376;DHT22;2202;50.866;12.750;2022-07-04T10:56:53;25.80;42.20
4376;DHT22;2202;50.866;12.750;2022-07-04T10:59:22;25.70;43.60
4376;DHT22;2202;50.866;12.750;2022-07-04T11:01:53;25.80;44.80
4376;DHT22;2202;50.866;12.750;2022-07-04T11:04:46;26.00;41.10
4376;DHT22;2202;50.866;12.750;2022-07-04T11:07:14;25.90;45.60
4376;DHT22;2202;50.866;12.750;2022-07-04T11:09:42;26.30;41.50
4376;DHT22;2202;50.866;12.750;2022-07-04T11:12:10;26.00;42.70
4376;DHT22;2202;50.866;12.750;2022-07-04T11:14:40;25.30;44.70
4376;DHT22;2202;50.866;12.750;2022-07-04T11:17:08;25.30;48.20
4376;DHT22;2202;50.866;12.750;2022-07-04T11:19:36;25.30;45.40
4376;DHT22;2202;50.866;12.750;2022-07-04T11:22:04;25.20;41.10
4376;DHT22;2202;50.866;12.750;2022-07-04T11:24:33;25.10;47.50
4376;DHT22;2202;50.866;12.750;2022-07-04T11:27:00;25.30;46.60
4376;DHT22;2202;50.866;12.750;2022-07-04T11:29:27;25.10;46.60
4376;DHT22;2202;50.866;12.750;2022-07-04T11:31:55;25.20;44.00
4376;DHT22;2202;50.866;12.750;2022-07-04T11:34:22;25.60;48.20
4376;DHT22;2202;50.866;12.750;2022-07-04T11:36:50;26.00;48.00
4376;DHT22;2202;50.866;12.750;2022-07-04T11:39:18;26.40;41.30
4376;DHT22;2202;50.866;12.750;2022-07-04T11:41:49;26.40;40.10
4376;DHT22;2202;50.866;12.750;2022-07-04T11:44:35;26.30;43.20
4376;DHT22;2202;50.866;12.750;2022-07-04T11:47:35;26.00;42.40
4376;DHT22;2202;50.866;12.750;2022-07-04T11:50:04;25.40;41.80
4376;DHT22;2202;50.866;12.750;2022-07-04T11:52:39;25.40;47.00
4376;DHT22;2202;50.866;12.750;2022-07-04T11:55:08;25.20;42.40
4376;DHT22;2202;50.866;12.750;2022-07-04T11:57:37;25.10;43.40
4376;DHT22;2202;50.866;12.750;2022-07-04T12:00:07;24.40;42.40
4376;DHT22;2202;50.866;12.750;2022-07-04T12:02:35;24.80;47.50
4376;DHT22;2202;50.866;12.750;2022-07-04T12:05:04;25.30;45.40
4376;DHT22;2202;50.866;12.750;2022-07-04T12:07:32;25.50;43.40
4376;DHT22;2202;50.866;12.750;2022-07-04T12:10:07;25.50;41.80
4376;DHT22;2202;50.866;12.750;2022-07-04T12:12:50;25.60;41.70
4376;DHT22;2202;50.866;12.750;2022-07-04T12:15:18;25.30;44.30
4376;DHT22;2202;50.866;12.750;2022-07-04T12:17:48;25.40;43.40
4376;DHT22;2202;50.866;12.750;2022-07-04T12:20:16;25.80;42.70
4376;DHT22;2202;50.866;12.750;2022-07-04T12:22:49;26.20;44.70
4376;DHT22;2202;50.866;12.750;2022-07-04T12:25:23;26.50;40.40
4376;DHT22;2202;50.866;12.750;2022-07-04T12:28:01;26.30;39.70
4376;DHT22;2202;50.866;12.750;2022-07-04T12:30:30;25.90;42.40
4376;DHT22;2202;50.866;12.750;2022-07-04T12:32:58;26.10;42.50
4376;DHT22;2202;50.866;12.750;2022-07-04T12:35:42;25.90;39.30
4376;DHT22;2202;50.866;12.750;2022-07-04T12:38:11;25.80;42.20
4376;DHT22;2202;50.866;12.750;2022-07-04T12:40:51;25.70;41.10
4376;DHT22;2202;50.866;12.750;2022-07-04T12:43:20;25.60;41.10
4376;DHT22;2202;50.866;12.750;2022-07-04T12:45:48;26.20;38.50
4376;DHT22;2202;50.866;12.750;2022-07-04T12:48:20;26.10;38.30
4376;DHT22;2202;50.866;12.750;2022-07-04T12:50:48;26.20;43.10
4376;DHT22;2202;50.866;12.750;2022-07-04T12:53:15;26.30;37.90
4376;DHT22;2202;50.866;12.750;2022-07-04T12:55:43;26.40;35.30
4376;DHT22;2202;50.866;12.750;2022-07-04T12:58:11;26.20;37.20
4376;DHT22;2202;50.866;12.750;2022-07-04T13:00:40;26.40;36.50
4376;DHT22;2202;50.866;12.750;2022-07-04T13:03:07;26.40;37.90
4376;DHT22;2202;50.866;12.750;2022-07-04T13:05:35;26.30;35.60
4376;DHT22;2202;50.866;12.750;2022-07-04T13:08:03;26.20;40.10
4376;DHT22;2202;50.866;12.750;2022-07-04T13:10:30;26.30;38.80
4376;DHT22;2202;50.866;12.750;2022-07-04T13:12:58;26.30;37.70
4376;DHT22;2202;50.866;12.750;2022-07-04T13:15:25;26.40;36.30
4376;DHT22;2202;50.866;12.750;2022-07-04T13:17:53;26.90;38.80
4376;DHT22;2202;50.866;12.750;2022-07-04T13:20:20;27.40;35.30
4376;DHT22;2202;50.866;12.750;2022-07-04T13:22:47;27.80;34.00
4376;DHT22;2202;50.866;12.750;2022-07-04T13:25:14;27.80;32.40
4376;DHT22;2202;50.866;12.750;2022-07-04T13:27:41;27.50;35.10
4376;DHT22;2202;50.866;12.750;2022-07-04T13:30:08;27.30;33.50
4376;DHT22;2202;50.866;12.750;2022-07-04T13:32:35;27.00;35.40
4376;DHT22;2202;50.866;12.750;2022-07-04T13:35:04;27.40;33.80
4376;DHT22;2202;50.866;12.750;2022-07-04T13:37:31;27.30;35.60
4376;DHT22;2202;50.866;12.750;2022-07-04T13:39:58;27.20;34.00
4376;DHT22;2202;50.866;12.750;2022-07-04T13:42:25;27.00;34.20
4376;DHT22;2202;50.866;12.750;2022-07-04T13:45:10;27.20;33.70
4376;DHT22;2202;50.866;12.750;2022-07-04T13:47:38;27.20;34.90
4376;DHT22;2202;50.866;12.750;2022-07-04T13:50:08;26.80;34.40
4376;DHT22;2202;50.866;12.750;2022-07-04T13:52:35;26.40;36.90
4376;DHT22;2202;50.866;12.750;2022-07-04T13:55:02;26.60;38.10
4376;DHT22;2202;50.866;12.750;2022-07-04T13:57:29;27.20;35.40
4376;DHT22;2202;50.866;12.750;2022-07-04T13:59:56;27.40;35.30
4376;DHT22;2202;50.866;12.750;2022-07-04T14:02:23;27.60;36.30
4376;DHT22;2202;50.866;12.750;2022-07-04T14:04:50;27.80;35.30
4376;DHT22;2202;50.866;12.750;2022-07-04T14:07:18;27.60;37.70
4376;DHT22;2202;50.866;12.750;2022-07-04T14:09:45;27.90;34.00
4376;DHT22;2202;50.866;12.750;2022-07-04T14:12:12;28.10;32.60
4376;DHT22;2202;50.866;12.750;2022-07-04T14:14:39;28.00;34.90
4376;DHT22;2202;50.866;12.750;2022-07-04T14:17:06;28.00;32.60
4376;DHT22;2202;50.866;12.750;2022-07-04T14:19:33;28.10;33.00
4376;DHT22;2202;50.866;12.750;2022-07-04T14:22:00;27.90;30.80
4376;DHT22;2202;50.866;12.750;2022-07-04T14:24:28;27.90;33.10
4376;DHT22;2202;50.866;12.750;2022-07-04T14:26:55;27.40;33.80
4376;DHT22;2202;50.866;12.750;2022-07-04T14:29:22;27.20;36.00
4376;DHT22;2202;50.866;12.750;2022-07-04T14:31:49;26.90;33.50
4376;DHT22;2202;50.866;12.750;2022-07-04T14:34:17;26.50;37.40
4376;DHT22;2202;50.866;12.750;2022-07-04T14:36:44;26.60;35.40
4376;DHT22;2202;50.866;12.750;2022-07-04T14:39:11;26.70;36.70
4376;DHT22;2202;50.866;12.750;2022-07-04T14:41:39;27.00;33.00
4376;DHT22;2202;50.866;12.750;2022-07-04T14:44:06;27.10;35.10
4376;DHT22;2202;50.866;12.750;2022-07-04T14:46:33;27.10;33.50
4376;DHT22;2202;50.866;12.750;2022-07-04T14:49:00;26.90;34.20
4376;DHT22;2202;50.866;12.750;2022-07-04T14:51:26;26.90;34.70
4376;DHT22;2202;50.866;12.750;2022-07-04T14:53:53;26.70;34.90
4376;DHT22;2202;50.866;12.750;2022-07-04T14:56:20;26.80;36.00
4376;DHT22;2202;50.866;12.750;2022-07-04T14:58:48;27.10;33.80
4376;DHT22;2202;50.866;12.750;2022-07-04T15:01:15;27.20;34.60
4376;DHT22;2202;50.866;12.750;2022-07-04T15:03:42;27.20;33.70
4376;DHT22;2202;50.866;12.750;2022-07-04T15:06:09;26.90;33.70
4376;DHT22;2202;50.866;12.750;2022-07-04T15:08:36;26.70;35.30
4376;DHT22;2202;50.866;12.750;2022-07-04T15:11:03;26.80;35.80
4376;DHT22;2202;50.866;12.750;2022-07-04T15:13:30;27.00;34.70
4376;DHT22;2202;50.866;12.750;2022-07-04T15:15:58;27.30;36.00
4376;DHT22;2202;50.866;12.750;2022-07-04T15:18:25;27.50;35.60
4376;DHT22;2202;50.866;12.750;2022-07-04T15:20:52;27.60;34.60
4376;DHT22;2202;50.866;12.750;2022-07-04T15:23:36;27.90;35.40
4376;DHT22;2202;50.866;12.750;2022-07-04T15:26:20;27.90;34.90
4376;DHT22;2202;50.866;12.750;2022-07-04T15:28:47;28.10;32.60
4376;DHT22;2202;50.866;12.750;2022-07-04T15:31:15;28.30;33.00
4376;DHT22;2202;50.866;12.750;2022-07-04T15:33:42;28.30;32.80
4376;DHT22;2202;50.866;12.750;2022-07-04T15:36:09;28.20;31.00
4376;DHT22;2202;50.866;12.750;2022-07-04T15:38:36;27.60;33.30
4376;DHT22;2202;50.866;12.750;2022-07-04T15:41:03;27.40;37.00
4376;DHT22;2202;50.866;12.750;2022-07-04T15:43:30;27.50;33.50
4376;DHT22;2202;50.866;12.750;2022-07-04T15:45:57;27.20;33.80
4376;DHT22;2202;50.866;12.750;2022-07-04T15:48:26;27.20;35.80
4376;DHT22;2202;50.866;12.750;2022-07-04T15:50:53;26.90;36.70
4376;DHT22;2202;50.866;12.750;2022-07-04T15:53:20;26.80;35.40